createdAt,value
2018-09-13T00:00:42.951Z,85.73
2018-09-13T00:03:11.667Z,85.33
2018-09-13T00:05:40.615Z,85.47
2018-09-13T00:08:09.280Z,85.79
2018-09-13T00:10:38.013Z,85.43
2018-09-13T00:13:06.649Z,85.57
2018-09-13T00:15:35.381Z,85.34
2018-09-13T00:18:04.059Z,85.32
2018-09-13T00:20:32.878Z,85.51
2018-09-13T00:23:01.835Z,85.59
2018-09-13T00:25:30.818Z,85.41
2018-09-13T00:27:59.506Z,85.89
2018-09-13T00:30:28.266Z,85.85
2018-09-13T00:32:56.932Z,86.01
2018-09-13T00:35:25.704Z,85.83
2018-09-13T00:37:54.439Z,85.85
2018-09-13T00:40:23.405Z,85.78
2018-09-13T00:42:52.410Z,85.95
2018-09-13T00:45:21.133Z,85.75
2018-09-13T00:47:49.894Z,86.00
2018-09-13T00:50:18.708Z,86.00
2018-09-13T00:52:47.434Z,85.89
2018-09-13T00:55:16.250Z,85.80
2018-09-13T00:57:45.197Z,85.60
2018-09-13T01:00:13.890Z,85.72
2018-09-13T01:02:42.687Z,85.87
2018-09-13T01:05:11.518Z,85.63
2018-09-13T01:07:40.526Z,85.76
2018-09-13T01:10:09.196Z,85.90
2018-09-13T01:12:37.855Z,85.69
2018-09-13T01:15:06.912Z,85.82
2018-09-13T01:17:35.649Z,85.83
2018-09-13T01:20:04.446Z,85.79
2018-09-13T01:22:33.202Z,86.03
2018-09-13T01:25:01.799Z,85.87
2018-09-13T01:27:30.591Z,85.72
2018-09-13T01:29:59.234Z,85.84
2018-09-13T01:32:27.856Z,86.00
2018-09-13T01:34:56.572Z,85.83
2018-09-13T01:37:25.470Z,86.08
2018-09-13T01:39:54.463Z,85.62
2018-09-13T01:42:23.576Z,86.09
2018-09-13T01:44:52.387Z,85.86
2018-09-13T01:47:21.324Z,85.80
2018-09-13T01:49:49.931Z,86.05
2018-09-13T01:52:18.741Z,86.13
2018-09-13T01:54:47.406Z,86.01
2018-09-13T01:57:16.131Z,86.02
2018-09-13T01:59:45.240Z,86.03
2018-09-13T02:02:14.013Z,85.76
2018-09-13T02:04:42.743Z,85.79
2018-09-13T02:07:11.484Z,85.59
2018-09-13T02:09:40.179Z,85.74
2018-09-13T02:12:08.959Z,86.01
2018-09-13T02:14:37.789Z,85.77
2018-09-13T02:17:06.659Z,85.63
2018-09-13T02:19:35.340Z,85.65
2018-09-13T02:22:04.258Z,85.73
2018-09-13T02:24:33.000Z,85.81
2018-09-13T02:27:01.687Z,85.47
2018-09-13T02:29:30.415Z,85.59
2018-09-13T02:31:59.266Z,85.50
2018-09-13T02:34:28.045Z,85.50
2018-09-13T02:36:56.665Z,85.43
2018-09-13T02:39:25.399Z,85.51
2018-09-13T02:41:54.112Z,85.18
2018-09-13T02:44:23.054Z,85.22
2018-09-13T02:46:51.919Z,85.27
2018-09-13T02:49:21.021Z,85.44
2018-09-13T02:51:49.583Z,85.07
2018-09-13T02:54:18.404Z,85.20
2018-09-13T02:56:47.358Z,85.15
2018-09-13T02:59:16.353Z,84.79
2018-09-13T03:01:45.025Z,85.10
2018-09-13T03:04:13.730Z,85.12
2018-09-13T03:06:42.639Z,85.20
2018-09-13T03:09:13.178Z,84.65
2018-09-13T03:11:43.273Z,84.75
2018-09-13T03:14:12.089Z,84.46
2018-09-13T03:16:41.166Z,84.44
2018-09-13T03:19:10.095Z,84.43
2018-09-13T03:21:38.712Z,84.10
2018-09-13T03:24:07.625Z,84.24
2018-09-13T03:26:36.373Z,83.94
2018-09-13T03:29:05.414Z,84.03
2018-09-13T03:31:34.406Z,84.15
2018-09-13T03:34:03.614Z,83.89
2018-09-13T03:36:32.486Z,83.91
2018-09-13T03:39:01.172Z,83.58
2018-09-13T03:41:30.127Z,83.44
2018-09-13T03:43:58.910Z,83.61
2018-09-13T03:46:27.743Z,83.41
2018-09-13T03:48:56.526Z,83.65
2018-09-13T03:51:25.236Z,83.44
2018-09-13T03:53:54.029Z,83.28
2018-09-13T03:56:22.914Z,83.05
2018-09-13T03:58:51.836Z,83.46
2018-09-13T04:01:20.820Z,83.24
2018-09-13T04:03:49.724Z,83.09
2018-09-13T04:06:18.449Z,82.71
2018-09-13T04:08:47.388Z,83.01
2018-09-13T04:11:16.202Z,82.78
2018-09-13T04:13:45.226Z,82.81
2018-09-13T04:16:14.024Z,82.88
2018-09-13T04:18:43.304Z,82.69
2018-09-13T04:21:11.867Z,82.64
2018-09-13T04:23:40.777Z,82.58
2018-09-13T04:26:09.420Z,82.44
2018-09-13T04:28:38.363Z,81.80
2018-09-13T04:31:07.105Z,82.07
2018-09-13T04:33:36.051Z,82.08
2018-09-13T04:36:04.803Z,82.20
2018-09-13T04:38:33.484Z,82.19
2018-09-13T04:41:02.161Z,81.95
2018-09-13T04:43:31.115Z,81.79
2018-09-13T04:46:00.013Z,81.45
2018-09-13T04:48:29.050Z,81.26
2018-09-13T04:50:57.938Z,81.58
2018-09-13T04:53:26.907Z,81.44
2018-09-13T04:55:55.762Z,80.74
2018-09-13T04:58:24.726Z,81.14
2018-09-13T05:00:54.292Z,80.60
2018-09-13T05:03:23.271Z,80.68
2018-09-13T05:05:52.578Z,81.43
2018-09-13T05:08:21.426Z,80.24
2018-09-13T05:10:50.878Z,80.21
2018-09-13T05:13:20.300Z,79.97
2018-09-13T05:15:49.647Z,80.10
2018-09-13T05:18:18.775Z,79.37
2018-09-13T05:20:48.092Z,79.72
2018-09-13T05:23:17.395Z,79.39
2018-09-13T05:25:47.212Z,79.14
2018-09-13T05:28:16.578Z,78.46
2018-09-13T05:30:46.371Z,78.52
2018-09-13T05:33:15.781Z,77.95
2018-09-13T05:35:45.076Z,78.26
2018-09-13T05:38:14.621Z,78.31
2018-09-13T05:40:44.079Z,78.34
2018-09-13T05:43:13.484Z,78.37
2018-09-13T05:45:43.164Z,78.08
2018-09-13T05:48:12.456Z,78.24
2018-09-13T05:50:41.628Z,77.45
2018-09-13T05:53:11.981Z,77.72
2018-09-13T05:55:41.368Z,75.51
2018-09-13T05:58:10.963Z,75.76
2018-09-13T06:00:40.474Z,76.16
2018-09-13T06:03:09.856Z,76.41
2018-09-13T06:05:39.035Z,76.92
2018-09-13T06:08:08.602Z,76.10
2018-09-13T06:10:38.314Z,76.68
2018-09-13T06:13:07.637Z,76.71
2018-09-13T06:15:37.016Z,77.02
2018-09-13T06:18:06.233Z,76.38
2018-09-13T06:20:35.576Z,75.57
2018-09-13T06:23:05.060Z,74.86
2018-09-13T06:25:34.577Z,73.72
2018-09-13T06:28:03.867Z,70.26
2018-09-13T06:30:33.287Z,69.22
2018-09-13T06:33:02.619Z,67.53
2018-09-13T06:35:31.820Z,69.04
2018-09-13T06:38:01.127Z,63.43
2018-09-13T06:40:30.416Z,66.05
2018-09-13T06:42:59.679Z,62.61
2018-09-13T06:45:29.059Z,61.25
2018-09-13T06:47:58.312Z,62.31
2018-09-13T06:50:27.497Z,60.34
2018-09-13T06:52:56.759Z,61.40
2018-09-13T06:55:26.032Z,60.02
2018-09-13T06:57:55.465Z,59.70
2018-09-13T07:00:24.770Z,59.16
2018-09-13T07:02:54.068Z,58.30
2018-09-13T07:05:23.374Z,57.43
2018-09-13T07:07:52.546Z,57.23
2018-09-13T07:10:21.645Z,54.46
2018-09-13T07:12:50.941Z,54.91
2018-09-13T07:15:20.109Z,57.19
2018-09-13T07:17:49.344Z,54.65
2018-09-13T07:20:18.653Z,54.84
2018-09-13T07:22:47.950Z,56.27
2018-09-13T07:25:17.263Z,54.31
2018-09-13T07:27:46.646Z,54.57
2018-09-13T07:30:16.118Z,53.49
2018-09-13T07:32:45.441Z,54.28
2018-09-13T07:35:17.900Z,53.64
2018-09-13T07:37:47.270Z,53.72
2018-09-13T07:40:16.727Z,52.74
2018-09-13T07:42:46.465Z,52.29
2018-09-13T07:45:15.804Z,51.32
2018-09-13T07:47:45.180Z,50.87
2018-09-13T07:50:14.569Z,50.68
2018-09-13T07:52:44.043Z,51.25
2018-09-13T07:55:13.290Z,51.17
2018-09-13T07:57:42.478Z,50.17
2018-09-13T08:00:11.777Z,49.27
2018-09-13T08:02:41.559Z,49.52
2018-09-13T08:05:11.023Z,48.71
2018-09-13T08:07:40.459Z,48.76
2018-09-13T08:10:09.782Z,48.40
2018-09-13T08:12:39.242Z,48.87
2018-09-13T08:15:08.611Z,47.79
2018-09-13T08:17:37.899Z,47.42
2018-09-13T08:20:07.079Z,46.54
2018-09-13T08:22:36.313Z,47.76
2018-09-13T08:25:05.716Z,46.28
2018-09-13T08:27:35.476Z,47.10
2018-09-13T08:30:04.966Z,46.70
2018-09-13T08:32:34.268Z,46.47
2018-09-13T08:35:03.768Z,45.13
2018-09-13T08:37:33.154Z,43.74
2018-09-13T08:40:04.018Z,41.45
2018-09-13T08:42:33.307Z,42.75
2018-09-13T08:45:02.822Z,44.06
2018-09-13T08:47:32.406Z,42.10
2018-09-13T08:50:01.840Z,44.64
2018-09-13T08:52:31.173Z,42.19
2018-09-13T08:55:00.607Z,41.23
2018-09-13T08:57:29.993Z,44.06
2018-09-13T08:59:59.514Z,43.99
2018-09-13T09:02:28.685Z,43.30
2018-09-13T09:04:58.151Z,41.12
2018-09-13T09:07:27.863Z,41.08
2018-09-13T09:09:57.307Z,41.94
2018-09-13T09:12:26.373Z,41.71
2018-09-13T09:14:55.566Z,40.39
2018-09-13T09:17:25.058Z,38.64
2018-09-13T09:19:54.582Z,40.55
2018-09-13T09:22:23.870Z,39.05
2018-09-13T09:24:53.523Z,38.83
2018-09-13T09:27:23.025Z,39.69
2018-09-13T09:29:52.610Z,37.30
2018-09-13T09:32:21.786Z,38.13
2018-09-13T09:34:51.596Z,36.49
2018-09-13T09:37:20.918Z,38.02
2018-09-13T09:39:50.430Z,39.47
2018-09-13T09:42:19.705Z,40.52
2018-09-13T09:44:49.145Z,41.36
2018-09-13T09:47:18.541Z,40.97
2018-09-13T09:49:47.725Z,39.95
2018-09-13T09:52:17.281Z,39.83
2018-09-13T09:54:46.844Z,38.95
2018-09-13T09:57:16.221Z,38.97
2018-09-13T09:59:45.770Z,38.82
2018-09-13T10:02:22.038Z,39.71
2018-09-13T10:04:51.564Z,40.46
2018-09-13T10:07:21.045Z,41.92
2018-09-13T10:09:50.383Z,40.45
2018-09-13T10:12:19.875Z,38.80
2018-09-13T10:14:54.079Z,38.00
2018-09-13T10:17:28.143Z,38.52
2018-09-13T10:20:02.477Z,38.87
2018-09-13T10:22:36.888Z,38.68
2018-09-13T10:25:11.158Z,40.41
2018-09-13T10:27:45.399Z,40.03
2018-09-13T10:30:19.902Z,40.92
2018-09-13T10:32:54.401Z,40.66
2018-09-13T10:35:28.601Z,40.25
2018-09-13T10:38:03.013Z,40.45
2018-09-13T10:40:37.500Z,38.85
2018-09-13T10:43:11.939Z,39.00
2018-09-13T10:45:46.301Z,37.84
2018-09-13T10:48:20.782Z,37.55
2018-09-13T10:50:55.277Z,37.32
2018-09-13T10:53:29.460Z,38.62
2018-09-13T10:55:58.882Z,37.93
2018-09-13T10:58:28.807Z,36.90
2018-09-13T11:00:58.046Z,38.17
2018-09-13T11:03:27.375Z,38.18
2018-09-13T11:05:56.683Z,37.02
2018-09-13T11:08:25.981Z,36.76
2018-09-13T11:10:55.326Z,37.19
2018-09-13T11:14:27.239Z,36.77
2018-09-13T11:16:56.503Z,37.08
2018-09-13T11:19:25.757Z,38.51
2018-09-13T11:21:54.984Z,39.07
2018-09-13T11:24:24.362Z,39.62
2018-09-13T11:26:53.851Z,40.45
2018-09-13T11:29:23.341Z,40.37
2018-09-13T11:31:52.842Z,40.74
2018-09-13T11:34:21.996Z,39.54
2018-09-13T11:36:51.651Z,38.28
2018-09-13T11:39:20.948Z,39.17
2018-09-13T11:41:50.100Z,38.34
2018-09-13T11:44:19.384Z,37.95
2018-09-13T11:46:48.794Z,38.74
2018-09-13T11:49:18.078Z,37.76
2018-09-13T11:51:47.652Z,37.25
2018-09-13T11:54:16.887Z,37.85
2018-09-13T11:56:46.338Z,36.79
2018-09-13T11:59:15.643Z,39.18
2018-09-13T12:01:45.030Z,39.01
2018-09-13T12:04:14.342Z,40.55
2018-09-13T12:10:16.325Z,40.81
2018-09-13T12:12:45.703Z,40.61
2018-09-13T12:15:15.013Z,39.98
2018-09-13T12:17:44.290Z,40.11
2018-09-13T12:20:13.866Z,40.85
2018-09-13T12:22:43.227Z,39.73
2018-09-13T12:25:12.546Z,38.63
2018-09-13T12:27:41.693Z,38.77
2018-09-13T12:30:11.280Z,39.64
2018-09-13T12:32:40.890Z,40.09
2018-09-13T12:35:10.221Z,39.75
2018-09-13T12:37:39.680Z,40.75
2018-09-13T12:40:09.532Z,41.58
2018-09-13T12:42:38.863Z,41.86
2018-09-13T12:45:09.372Z,42.49
2018-09-13T12:47:38.684Z,42.51
2018-09-13T12:50:08.634Z,41.26
2018-09-13T12:52:37.921Z,40.93
2018-09-13T12:55:07.229Z,41.02
2018-09-13T12:57:36.454Z,39.19
2018-09-13T13:00:06.092Z,38.79
2018-09-13T13:02:35.538Z,39.81
2018-09-13T13:05:04.872Z,40.98
2018-09-13T13:07:34.308Z,41.47
2018-09-13T13:10:03.917Z,40.86
2018-09-13T13:12:33.385Z,41.40
2018-09-13T13:15:02.743Z,41.57
2018-09-13T13:17:32.191Z,41.59
2018-09-13T13:20:01.684Z,42.83
2018-09-13T13:22:31.152Z,40.87
2018-09-13T13:25:00.527Z,41.73
2018-09-13T13:27:29.911Z,42.20
2018-09-13T13:29:59.104Z,40.47
2018-09-13T13:32:28.506Z,40.91
2018-09-13T13:34:57.997Z,41.22
2018-09-13T13:37:27.433Z,40.03
2018-09-13T13:39:56.955Z,39.98
2018-09-13T13:42:26.326Z,41.30
2018-09-13T13:44:56.055Z,41.11
2018-09-13T13:47:25.592Z,42.45
2018-09-13T13:49:55.367Z,42.69
2018-09-13T13:52:24.845Z,43.03
2018-09-13T13:54:54.609Z,44.74
2018-09-13T13:57:24.993Z,44.25
2018-09-13T13:59:54.558Z,45.90
2018-09-13T14:02:24.251Z,47.57
2018-09-13T14:04:53.796Z,48.59
2018-09-13T14:07:23.085Z,48.84
2018-09-13T14:09:52.820Z,49.55
2018-09-13T14:12:22.530Z,48.53
2018-09-13T14:14:51.943Z,48.28
2018-09-13T14:17:21.675Z,42.30
2018-09-13T14:19:51.241Z,36.93
2018-09-13T14:22:20.991Z,33.88
2018-09-13T14:24:50.708Z,34.31
2018-09-13T14:27:20.364Z,34.01
2018-09-13T14:29:49.923Z,32.23
2018-09-13T14:32:19.426Z,33.53
2018-09-13T14:34:49.125Z,37.48
2018-09-13T14:37:18.892Z,39.07
2018-09-13T14:39:48.466Z,37.95
2018-09-13T14:42:18.231Z,35.92
2018-09-13T14:44:48.089Z,34.28
2018-09-13T14:47:18.112Z,34.92
2018-09-13T14:49:49.642Z,38.55
2018-09-13T14:52:19.841Z,39.63
2018-09-13T14:54:50.105Z,38.18
2018-09-13T14:57:19.919Z,37.37
2018-09-13T14:59:49.597Z,36.04
2018-09-13T15:02:19.590Z,35.89
2018-09-13T15:04:49.375Z,35.97
2018-09-13T15:07:19.334Z,35.05
2018-09-13T15:09:49.029Z,35.84
2018-09-13T15:12:18.605Z,36.41
2018-09-13T15:14:48.269Z,37.64
2018-09-13T15:17:18.250Z,39.39
2018-09-13T15:19:48.422Z,41.59
2018-09-13T15:22:18.260Z,40.52
2018-09-13T15:24:48.927Z,42.38
2018-09-13T15:27:18.955Z,43.61
2018-09-13T15:29:48.721Z,45.53
2018-09-13T15:32:18.340Z,45.87
2018-09-13T15:34:48.599Z,46.52
2018-09-13T15:37:18.232Z,46.67
2018-09-13T15:39:49.019Z,46.93
2018-09-13T15:42:18.806Z,47.12
2018-09-13T15:44:48.927Z,46.73
2018-09-13T15:47:18.710Z,46.62
2018-09-13T15:49:48.555Z,46.09
2018-09-13T15:52:18.369Z,46.79
2018-09-13T15:54:48.341Z,47.67
2018-09-13T15:57:18.487Z,47.47
2018-09-13T15:59:47.979Z,48.42
2018-09-13T16:02:17.834Z,48.46
2018-09-13T16:04:47.910Z,49.34
2018-09-13T16:07:17.615Z,49.74
2018-09-13T16:09:47.314Z,49.93
2018-09-13T16:12:16.892Z,50.78
2018-09-13T16:14:46.786Z,51.33
2018-09-13T16:17:17.192Z,51.38
2018-09-13T16:19:47.151Z,51.89
2018-09-13T16:22:17.322Z,52.47
2018-09-13T16:24:47.285Z,52.74
2018-09-13T16:27:17.837Z,52.64
2018-09-13T16:29:47.664Z,53.09
2018-09-13T16:32:20.816Z,53.53
2018-09-13T16:34:51.156Z,54.29
2018-09-13T16:37:25.791Z,54.42
2018-09-13T16:40:00.984Z,54.35
2018-09-13T16:42:43.017Z,55.41
2018-09-13T16:45:12.713Z,56.05
2018-09-13T16:47:47.273Z,56.72
2018-09-13T16:50:16.947Z,57.01
2018-09-13T16:52:49.627Z,56.33
2018-09-13T16:55:18.867Z,56.80
2018-09-13T16:57:48.171Z,57.58
2018-09-13T17:00:17.829Z,57.82
2018-09-13T17:02:47.721Z,57.45
2018-09-13T17:05:17.274Z,57.66
2018-09-13T17:07:46.651Z,57.90
2018-09-13T17:10:15.992Z,57.99
2018-09-13T17:12:45.631Z,57.76
2018-09-13T17:15:15.110Z,57.85
2018-09-13T17:17:44.657Z,58.11
2018-09-13T17:20:14.216Z,58.21
2018-09-13T17:22:43.818Z,57.89
2018-09-13T17:25:13.068Z,58.25
2018-09-13T17:27:42.366Z,58.17
2018-09-13T17:30:11.321Z,58.67
2018-09-13T17:32:40.285Z,58.72
2018-09-13T17:35:09.057Z,58.82
2018-09-13T17:37:38.071Z,59.45
2018-09-13T17:40:07.118Z,59.31
2018-09-13T17:42:36.162Z,60.19
2018-09-13T17:45:05.173Z,60.41
2018-09-13T17:47:34.017Z,60.30
2018-09-13T17:50:02.840Z,60.55
2018-09-13T17:52:31.654Z,61.03
2018-09-13T17:55:00.660Z,61.40
2018-09-13T17:57:29.454Z,61.71
2018-09-13T17:59:58.057Z,62.14
2018-09-13T18:02:26.854Z,62.39
2018-09-13T18:04:55.988Z,62.52
2018-09-13T18:07:25.447Z,63.12
2018-09-13T18:09:54.237Z,63.10
2018-09-13T18:12:23.278Z,63.75
2018-09-13T18:14:52.294Z,63.62
2018-09-13T18:17:21.067Z,63.53
2018-09-13T18:19:49.848Z,63.87
2018-09-13T18:22:18.458Z,64.20
2018-09-13T18:24:47.350Z,64.72
2018-09-13T18:27:16.390Z,64.58
2018-09-13T18:29:45.489Z,65.05
2018-09-13T18:32:14.328Z,65.40
2018-09-13T18:34:43.180Z,65.80
2018-09-13T18:37:11.894Z,65.92
2018-09-13T18:39:40.491Z,66.44
2018-09-13T18:42:09.376Z,66.45
2018-09-13T18:44:38.160Z,67.12
2018-09-13T18:47:06.874Z,66.92
2018-09-13T18:49:35.660Z,66.85
2018-09-13T18:52:04.588Z,67.16
2018-09-13T18:54:33.552Z,67.04
2018-09-13T18:57:02.304Z,67.26
2018-09-13T18:59:31.210Z,67.28
2018-09-13T19:01:59.906Z,67.75
2018-09-13T19:04:28.689Z,68.31
2018-09-13T19:06:57.664Z,68.41
2018-09-13T19:09:26.701Z,68.79
2018-09-13T19:11:55.471Z,68.87
2018-09-13T19:14:24.284Z,68.65
2018-09-13T19:16:53.074Z,68.72
2018-09-13T19:19:22.060Z,69.13
2018-09-13T19:21:50.975Z,68.94
2018-09-13T19:24:20.039Z,69.62
2018-09-13T19:26:49.035Z,69.70
2018-09-13T19:29:17.914Z,69.74
2018-09-13T19:31:46.927Z,70.25
2018-09-13T19:34:15.801Z,70.07
2018-09-13T19:36:44.494Z,70.64
2018-09-13T19:39:14.001Z,71.45
2018-09-13T19:41:43.447Z,70.95
2018-09-13T19:44:12.343Z,70.79
2018-09-13T19:46:41.242Z,71.32
2018-09-13T19:49:09.875Z,70.85
2018-09-13T19:51:38.841Z,70.79
2018-09-13T19:54:07.607Z,71.28
2018-09-13T19:56:36.323Z,71.21
2018-09-13T19:59:05.068Z,71.45
2018-09-13T20:01:34.079Z,71.81
2018-09-13T20:04:02.828Z,71.94
2018-09-13T20:06:31.910Z,72.82
2018-09-13T20:09:00.713Z,73.46
2018-09-13T20:11:29.489Z,72.63
2018-09-13T20:13:58.667Z,72.38
2018-09-13T20:16:28.062Z,73.10
2018-09-13T20:18:56.884Z,72.58
2018-09-13T20:21:25.882Z,73.30
2018-09-13T20:23:55.081Z,74.56
2018-09-13T20:26:23.973Z,73.76
2018-09-13T20:28:52.997Z,74.13
2018-09-13T20:31:21.677Z,73.81
2018-09-13T20:33:50.521Z,74.09
2018-09-13T20:36:19.157Z,74.35
2018-09-13T20:38:48.039Z,73.82
2018-09-13T20:41:16.743Z,73.42
2018-09-13T20:43:45.582Z,73.76
2018-09-13T20:46:14.282Z,73.66
2018-09-13T20:48:43.124Z,73.69
2018-09-13T20:51:12.012Z,73.86
2018-09-13T20:53:40.788Z,74.16
2018-09-13T20:56:09.402Z,74.32
2018-09-13T20:58:38.388Z,74.16
2018-09-13T21:01:07.493Z,74.28
2018-09-13T21:03:36.217Z,74.31
2018-09-13T21:06:05.019Z,74.13
2018-09-13T21:08:33.981Z,74.41
2018-09-13T21:11:02.905Z,74.43
2018-09-13T21:13:32.211Z,74.56
2018-09-13T21:16:01.011Z,74.58
2018-09-13T21:18:29.807Z,74.75
2018-09-13T21:20:58.567Z,74.92
2018-09-13T21:23:27.538Z,74.95
2018-09-13T21:25:56.828Z,74.95
2018-09-13T21:28:25.579Z,75.16
2018-09-13T21:30:54.702Z,75.19
2018-09-13T21:33:23.429Z,74.49
2018-09-13T21:35:52.260Z,75.39
2018-09-13T21:38:21.124Z,74.97
2018-09-13T21:40:49.934Z,74.86
2018-09-13T21:43:18.755Z,75.29
2018-09-13T21:45:47.542Z,75.08
2018-09-13T21:48:16.275Z,74.71
2018-09-13T21:50:45.331Z,74.80
2018-09-13T21:53:14.101Z,74.58
2018-09-13T21:55:43.681Z,74.95
2018-09-13T21:58:12.475Z,74.90
2018-09-13T22:00:41.244Z,75.10
2018-09-13T22:03:10.063Z,75.45
2018-09-13T22:05:38.961Z,75.42
2018-09-13T22:08:07.624Z,75.43
2018-09-13T22:10:36.692Z,75.55
2018-09-13T22:13:05.325Z,75.63
2018-09-13T22:15:34.077Z,75.80
2018-09-13T22:18:02.850Z,75.51
2018-09-13T22:20:31.944Z,75.60
2018-09-13T22:23:00.725Z,75.92
2018-09-13T22:25:29.766Z,75.84
2018-09-13T22:27:58.427Z,76.08
2018-09-13T22:30:27.219Z,75.84
2018-09-13T22:32:56.154Z,75.78
2018-09-13T22:35:25.400Z,75.67
2018-09-13T22:37:54.244Z,75.59
2018-09-13T22:40:23.859Z,75.33
2018-09-13T22:42:52.649Z,75.76
2018-09-13T22:45:21.790Z,75.25
2018-09-13T22:47:50.664Z,75.79
2018-09-13T22:50:19.504Z,75.61
2018-09-13T22:52:48.209Z,75.39
2018-09-13T22:55:17.262Z,75.69
2018-09-13T22:57:46.118Z,76.09
2018-09-13T23:00:15.326Z,76.50
2018-09-13T23:02:48.416Z,76.78
2018-09-13T23:05:18.366Z,77.16
2018-09-13T23:07:47.581Z,76.99
2018-09-13T23:10:17.221Z,76.85
2018-09-13T23:12:46.262Z,76.86
2018-09-13T23:15:15.112Z,76.83
2018-09-13T23:17:44.493Z,76.76
2018-09-13T23:20:13.425Z,76.91
2018-09-13T23:22:42.147Z,76.64
2018-09-13T23:25:10.919Z,76.71
2018-09-13T23:27:39.950Z,76.69
2018-09-13T23:30:08.924Z,76.87
2018-09-13T23:32:37.632Z,76.54
2018-09-13T23:35:06.533Z,76.76
2018-09-13T23:37:35.243Z,76.39
2018-09-13T23:40:04.165Z,76.66
2018-09-13T23:42:32.938Z,76.33
2018-09-13T23:45:01.628Z,76.31
2018-09-13T23:47:31.052Z,75.78
2018-09-13T23:49:59.709Z,76.29
2018-09-13T23:52:28.857Z,76.01
2018-09-13T23:54:58.271Z,76.49
2018-09-13T23:57:27.032Z,76.35
2018-09-13T23:59:55.763Z,76.30
